sensor_id;sensor_type;location;lat;lon;timestamp;noise_LAeq;noise_LA_min;noise_LA_max;noise_LA01;noise_LA95
71016;Laerm;60940;52.046;5.340;2022-10-29T00:00:08;30.08;28.85;31.24;;
71016;Laerm;60940;52.046;5.340;2022-10-29T00:00:18;30.13;28.80;31.40;;
71016;Laerm;60940;52.046;5.340;2022-10-29T00:00:28;30.08;28.88;31.31;;
71016;Laerm;60940;52.046;5.340;2022-10-29T00:00:39;29.90;28.80;31.20;;
71016;Laerm;60940;52.046;5.340;2022-10-29T00:00:52;29.93;28.78;32.83;;
71016;Laerm;60940;52.046;5.340;2022-10-29T00:01:03;29.95;28.47;31.68;;
71016;Laerm;60940;52.046;5.340;2022-10-29T00:01:13;30.07;28.51;40.25;;
71016;Laerm;60940;52.046;5.340;2022-10-29T00:01:23;29.89;28.77;31.25;;
71016;Laerm;60940;52.046;5.340;2022-10-29T00:01:34;29.83;28.56;30.65;;
71016;Laerm;60940;52.046;5.340;2022-10-29T00:01:44;29.86;28.73;30.96;;
71016;Laerm;60940;52.046;5.340;2022-10-29T00:01:54;29.81;28.39;30.92;;
71016;Laerm;60940;52.046;5.340;2022-10-29T00:02:04;29.85;28.59;31.09;;
71016;Laerm;60940;52.046;5.340;2022-10-29T00:02:14;29.76;28.51;30.85;;
71016;Laerm;60940;52.046;5.340;2022-10-29T00:02:25;29.80;28.68;31.18;;
71016;Laerm;60940;52.046;5.340;2022-10-29T00:02:35;29.94;28.55;31.84;;
71016;Laerm;60940;52.046;5.340;2022-10-29T00:02:45;30.00;28.75;31.05;;
71016;Laerm;60940;52.046;5.340;2022-10-29T00:02:55;30.10;28.73;31.18;;
71016;Laerm;60940;52.046;5.340;2022-10-29T00:03:06;30.27;29.07;31.49;;
71016;Laerm;60940;52.046;5.340;2022-10-29T00:03:16;30.58;29.23;32.47;;
71016;Laerm;60940;52.046;5.340;2022-10-29T00:03:26;30.33;28.72;32.13;;
71016;Laerm;60940;52.046;5.340;2022-10-29T00:03:36;30.40;28.91;31.70;;
71016;Laerm;60940;52.046;5.340;2022-10-29T00:03:47;30.69;29.04;32.55;;
71016;Laerm;60940;52.046;5.340;2022-10-29T00:03:58;30.58;29.30;31.76;;
71016;Laerm;60940;52.046;5.340;2022-10-29T00:04:08;30.97;29.73;32.52;;
71016;Laerm;60940;52.046;5.340;2022-10-29T00:04:18;30.63;29.22;35.88;;
71016;Laerm;60940;52.046;5.340;2022-10-29T00:04:29;30.24;29.16;31.61;;
71016;Laerm;60940;52.046;5.340;2022-10-29T00:04:39;30.00;28.57;32.17;;
71016;Laerm;60940;52.046;5.340;2022-10-29T00:04:49;30.04;28.67;34.07;;
71016;Laerm;60940;52.046;5.340;2022-10-29T00:04:59;30.00;28.48;31.20;;
71016;Laerm;60940;52.046;5.340;2022-10-29T00:05:09;30.02;28.87;31.31;;
71016;Laerm;60940;52.046;5.340;2022-10-29T00:05:20;30.05;28.90;31.33;;
71016;Laerm;60940;52.046;5.340;2022-10-29T00:05:30;30.19;29.01;31.45;;
71016;Laerm;60940;52.046;5.340;2022-10-29T00:05:40;30.15;28.98;31.41;;
71016;Laerm;60940;52.046;5.340;2022-10-29T00:05:57;30.15;28.68;34.40;;
71016;Laerm;60940;52.046;5.340;2022-10-29T00:06:09;30.05;28.71;31.95;;
71016;Laerm;60940;52.046;5.340;2022-10-29T00:06:19;30.00;28.44;31.34;;
71016;Laerm;60940;52.046;5.340;2022-10-29T00:06:29;29.98;28.72;31.61;;
71016;Laerm;60940;52.046;5.340;2022-10-29T00:06:39;29.94;28.76;31.38;;
71016;Laerm;60940;52.046;5.340;2022-10-29T00:06:50;29.97;29.01;32.30;;
71016;Laerm;60940;52.046;5.340;2022-10-29T00:07:00;29.90;28.63;30.94;;
71016;Laerm;60940;52.046;5.340;2022-10-29T00:07:10;29.93;28.64;31.77;;
71016;Laerm;60940;52.046;5.340;2022-10-29T00:07:20;29.97;28.91;31.24;;
71016;Laerm;60940;52.046;5.340;2022-10-29T00:07:30;30.14;28.83;32.33;;
71016;Laerm;60940;52.046;5.340;2022-10-29T00:07:41;30.33;28.93;37.12;;
71016;Laerm;60940;52.046;5.340;2022-10-29T00:07:51;30.16;28.89;34.29;;
71016;Laerm;60940;52.046;5.340;2022-10-29T00:08:01;30.12;28.72;31.40;;
71016;Laerm;60940;52.046;5.340;2022-10-29T00:08:11;31.68;29.05;41.16;;
71016;Laerm;60940;52.046;5.340;2022-10-29T00:08:22;30.60;29.04;34.58;;
71016;Laerm;60940;52.046;5.340;2022-10-29T00:08:33;31.35;29.23;34.75;;
71016;Laerm;60940;52.046;5.340;2022-10-29T00:08:43;32.60;29.93;37.28;;
71016;Laerm;60940;52.046;5.340;2022-10-29T00:08:53;34.90;30.29;43.29;;
71016;Laerm;60940;52.046;5.340;2022-10-29T00:09:04;35.70;29.94;43.58;;
71016;Laerm;60940;52.046;5.340;2022-10-29T00:09:14;35.59;30.84;39.82;;
71016;Laerm;60940;52.046;5.340;2022-10-29T00:09:24;35.80;31.32;41.36;;
71016;Laerm;60940;52.046;5.340;2022-10-29T00:09:34;35.59;31.19;39.97;;
71016;Laerm;60940;52.046;5.340;2022-10-29T00:09:44;34.93;31.19;41.26;;
71016;Laerm;60940;52.046;5.340;2022-10-29T00:09:55;35.18;30.18;44.10;;
71016;Laerm;60940;52.046;5.340;2022-10-29T00:10:05;35.21;30.22;40.43;;
71016;Laerm;60940;52.046;5.340;2022-10-29T00:10:15;34.21;29.70;38.25;;
71016;Laerm;60940;52.046;5.340;2022-10-29T00:10:26;33.18;30.19;37.51;;
71016;Laerm;60940;52.046;5.340;2022-10-29T00:10:36;32.47;29.88;36.62;;
71016;Laerm;60940;52.046;5.340;2022-10-29T00:10:46;31.90;29.41;35.07;;
71016;Laerm;60940;52.046;5.340;2022-10-29T00:11:07;31.45;29.52;36.04;;
71016;Laerm;60940;52.046;5.340;2022-10-29T00:11:19;30.61;28.93;33.55;;
71016;Laerm;60940;52.046;5.340;2022-10-29T00:11:29;30.47;28.94;32.79;;
71016;Laerm;60940;52.046;5.340;2022-10-29T00:11:39;30.32;28.79;32.09;;
71016;Laerm;60940;52.046;5.340;2022-10-29T00:11:49;30.26;28.97;33.11;;
71016;Laerm;60940;52.046;5.340;2022-10-29T00:12:00;30.14;28.74;31.92;;
71016;Laerm;60940;52.046;5.340;2022-10-29T00:12:10;30.21;28.71;33.43;;
71016;Laerm;60940;52.046;5.340;2022-10-29T00:12:20;29.99;28.77;31.46;;
71016;Laerm;60940;52.046;5.340;2022-10-29T00:12:30;30.12;28.85;31.82;;
71016;Laerm;60940;52.046;5.340;2022-10-29T00:12:40;30.28;29.16;31.92;;
71016;Laerm;60940;52.046;5.340;2022-10-29T00:12:51;30.23;28.70;31.63;;
71016;Laerm;60940;52.046;5.340;2022-10-29T00:13:01;30.15;28.80;31.28;;
71016;Laerm;60940;52.046;5.340;2022-10-29T00:13:12;30.37;28.93;32.90;;
71016;Laerm;60940;52.046;5.340;2022-10-29T00:13:22;30.19;29.19;31.32;;
71016;Laerm;60940;52.046;5.340;2022-10-29T00:13:33;30.21;28.93;31.71;;
71016;Laerm;60940;52.046;5.340;2022-10-29T00:13:43;30.37;29.13;31.66;;
71016;Laerm;60940;52.046;5.340;2022-10-29T00:13:55;31.70;29.61;34.07;;
71016;Laerm;60940;52.046;5.340;2022-10-29T00:14:06;30.53;28.72;32.86;;
71016;Laerm;60940;52.046;5.340;2022-10-29T00:14:16;30.35;28.87;31.62;;
71016;Laerm;60940;52.046;5.340;2022-10-29T00:14:26;30.50;28.96;33.67;;
71016;Laerm;60940;52.046;5.340;2022-10-29T00:14:36;30.13;28.68;31.57;;
71016;Laerm;60940;52.046;5.340;2022-10-29T00:14:47;30.28;28.87;33.20;;
71016;Laerm;60940;52.046;5.340;2022-10-29T00:14:57;30.19;28.75;33.37;;
71016;Laerm;60940;52.046;5.340;2022-10-29T00:15:07;30.45;29.07;32.76;;
71016;Laerm;60940;52.046;5.340;2022-10-29T00:15:18;30.77;28.96;32.67;;
71016;Laerm;60940;52.046;5.340;2022-10-29T00:15:28;30.36;28.97;31.98;;
71016;Laerm;60940;52.046;5.340;2022-10-29T00:15:41;30.45;29.14;32.89;;
71016;Laerm;60940;52.046;5.340;2022-10-29T00:15:51;30.18;28.98;31.85;;
71016;Laerm;60940;52.046;5.340;2022-10-29T00:16:09;30.15;28.85;31.86;;
71016;Laerm;60940;52.046;5.340;2022-10-29T00:16:22;30.23;28.94;37.59;;
71016;Laerm;60940;52.046;5.340;2022-10-29T00:16:36;30.16;28.32;31.47;;
71016;Laerm;60940;52.046;5.340;2022-10-29T00:16:47;30.07;28.86;31.28;;
71016;Laerm;60940;52.046;5.340;2022-10-29T00:16:57;29.98;28.71;31.25;;
71016;Laerm;60940;52.046;5.340;2022-10-29T00:17:07;30.09;28.73;31.28;;
71016;Laerm;60940;52.046;5.340;2022-10-29T00:17:17;30.13;28.86;31.18;;
71016;Laerm;60940;52.046;5.340;2022-10-29T00:17:27;30.14;28.73;31.53;;
71016;Laerm;60940;52.046;5.340;2022-10-29T00:17:38;30.16;28.88;31.75;;
71016;Laerm;60940;52.046;5.340;2022-10-29T00:17:48;30.00;28.86;31.27;;
71016;Laerm;60940;52.046;5.340;2022-10-29T00:17:58;30.09;28.68;33.41;;
71016;Laerm;60940;52.046;5.340;2022-10-29T00:18:08;29.81;28.65;30.88;;
71016;Laerm;60940;52.046;5.340;2022-10-29T00:18:18;29.86;28.49;30.99;;
71016;Laerm;60940;52.046;5.340;2022-10-29T00:18:29;29.81;28.56;30.93;;
71016;Laerm;60940;52.046;5.340;2022-10-29T00:18:39;29.93;28.87;31.52;;
71016;Laerm;60940;52.046;5.340;2022-10-29T00:18:49;29.98;28.78;31.71;;
71016;Laerm;60940;52.046;5.340;2022-10-29T00:18:59;29.94;28.78;32.46;;
71016;Laerm;60940;52.046;5.340;2022-10-29T00:19:10;29.94;28.72;31.10;;
71016;Laerm;60940;52.046;5.340;2022-10-29T00:19:20;29.96;28.60;31.19;;
71016;Laerm;60940;52.046;5.340;2022-10-29T00:19:30;29.96;28.79;31.06;;
71016;Laerm;60940;52.046;5.340;2022-10-29T00:19:40;30.16;28.75;31.49;;
71016;Laerm;60940;52.046;5.340;2022-10-29T00:19:50;30.36;29.09;31.73;;
71016;Laerm;60940;52.046;5.340;2022-10-29T00:20:01;30.34;29.12;31.75;;
71016;Laerm;60940;52.046;5.340;2022-10-29T00:20:11;30.09;28.79;31.39;;
71016;Laerm;60940;52.046;5.340;2022-10-29T00:20:21;30.13;29.07;31.57;;
71016;Laerm;60940;52.046;5.340;2022-10-29T00:20:32;30.17;28.69;31.58;;
71016;Laerm;60940;52.046;5.340;2022-10-29T00:20:43;30.11;28.94;31.44;;
71016;Laerm;60940;52.046;5.340;2022-10-29T00:21:00;30.11;28.76;31.87;;
71016;Laerm;60940;52.046;5.340;2022-10-29T00:21:11;31.41;29.26;37.37;;
71016;Laerm;60940;52.046;5.340;2022-10-29T00:21:23;35.00;30.62;40.17;;
71016;Laerm;60940;52.046;5.340;2022-10-29T00:21:34;36.14;31.22;41.03;;
71016;Laerm;60940;52.046;5.340;2022-10-29T00:21:44;34.98;30.50;38.54;;
71016;Laerm;60940;52.046;5.340;2022-10-29T00:21:54;36.21;31.53;41.80;;
71016;Laerm;60940;52.046;5.340;2022-10-29T00:22:04;33.89;30.63;37.70;;
71016;Laerm;60940;52.046;5.340;2022-10-29T00:22:15;32.23;29.87;36.76;;
71016;Laerm;60940;52.046;5.340;2022-10-29T00:22:25;30.61;28.91;32.88;;
71016;Laerm;60940;52.046;5.340;2022-10-29T00:22:35;30.31;28.96;31.63;;
71016;Laerm;60940;52.046;5.340;2022-10-29T00:22:45;30.06;28.79;31.27;;
71016;Laerm;60940;52.046;5.340;2022-10-29T00:22:56;30.32;29.05;32.83;;
71016;Laerm;60940;52.046;5.340;2022-10-29T00:23:06;30.15;28.74;31.69;;
71016;Laerm;60940;52.046;5.340;2022-10-29T00:23:16;30.16;28.69;32.10;;
71016;Laerm;60940;52.046;5.340;2022-10-29T00:23:26;30.51;29.04;32.61;;
71016;Laerm;60940;52.046;5.340;2022-10-29T00:23:36;30.20;28.75;31.39;;
71016;Laerm;60940;52.046;5.340;2022-10-29T00:23:47;30.57;28.86;32.80;;
71016;Laerm;60940;52.046;5.340;2022-10-29T00:23:57;30.10;28.84;32.36;;
71016;Laerm;60940;52.046;5.340;2022-10-29T00:24:08;29.83;28.59;31.14;;
71016;Laerm;60940;52.046;5.340;2022-10-29T00:24:18;29.97;28.87;31.77;;
71016;Laerm;60940;52.046;5.340;2022-10-29T00:24:29;29.91;28.62;31.23;;
71016;Laerm;60940;52.046;5.340;2022-10-29T00:24:39;29.88;28.38;33.41;;
71016;Laerm;60940;52.046;5.340;2022-10-29T00:24:49;29.91;28.31;31.24;;
71016;Laerm;60940;52.046;5.340;2022-10-29T00:24:59;29.88;28.68;31.01;;
71016;Laerm;60940;52.046;5.340;2022-10-29T00:25:09;30.27;28.53;31.99;;
71016;Laerm;60940;52.046;5.340;2022-10-29T00:25:20;30.99;29.15;35.58;;
71016;Laerm;60940;52.046;5.340;2022-10-29T00:25:30;31.96;29.38;36.40;;
71016;Laerm;60940;52.046;5.340;2022-10-29T00:25:40;32.71;29.39;37.85;;
71016;Laerm;60940;52.046;5.340;2022-10-29T00:25:54;34.25;30.10;41.04;;
71016;Laerm;60940;52.046;5.340;2022-10-29T00:26:05;34.73;30.73;38.94;;
71016;Laerm;60940;52.046;5.340;2022-10-29T00:26:16;33.28;29.42;41.25;;
71016;Laerm;60940;52.046;5.340;2022-10-29T00:26:27;31.79;29.18;36.41;;
71016;Laerm;60940;52.046;5.340;2022-10-29T00:26:38;31.72;29.23;35.90;;
71016;Laerm;60940;52.046;5.340;2022-10-29T00:26:48;31.65;28.97;36.91;;
71016;Laerm;60940;52.046;5.340;2022-10-29T00:26:58;31.16;29.37;34.50;;
71016;Laerm;60940;52.046;5.340;2022-10-29T00:27:08;30.48;28.89;32.97;;
71016;Laerm;60940;52.046;5.340;2022-10-29T00:27:18;30.34;28.58;34.05;;
71016;Laerm;60940;52.046;5.340;2022-10-29T00:27:29;30.05;28.79;31.84;;
71016;Laerm;60940;52.046;5.340;2022-10-29T00:27:40;29.93;28.44;31.08;;
71016;Laerm;60940;52.046;5.340;2022-10-29T00:27:50;29.82;28.33;31.24;;
71016;Laerm;60940;52.046;5.340;2022-10-29T00:28:00;29.82;28.62;30.85;;
71016;Laerm;60940;52.046;5.340;2022-10-29T00:28:10;29.92;28.55;37.66;;
71016;Laerm;60940;52.046;5.340;2022-10-29T00:28:21;29.87;28.46;30.96;;
71016;Laerm;60940;52.046;5.340;2022-10-29T00:28:31;29.83;28.75;33.28;;
71016;Laerm;60940;52.046;5.340;2022-10-29T00:28:42;29.79;28.63;32.53;;
71016;Laerm;60940;52.046;5.340;2022-10-29T00:28:53;29.81;28.53;30.81;;
71016;Laerm;60940;52.046;5.340;2022-10-29T00:29:03;29.90;28.61;30.89;;
71016;Laerm;60940;52.046;5.340;2022-10-29T00:29:13;29.81;28.36;31.02;;
71016;Laerm;60940;52.046;5.340;2022-10-29T00:29:24;29.81;28.63;30.77;;
71016;Laerm;60940;52.046;5.340;2022-10-29T00:29:34;29.82;28.79;31.08;;
71016;Laerm;60940;52.046;5.340;2022-10-29T00:29:44;30.00;28.96;31.63;;
71016;Laerm;60940;52.046;5.340;2022-10-29T00:29:54;30.37;28.98;32.41;;
71016;Laerm;60940;52.046;5.340;2022-10-29T00:30:04;31.21;29.30;36.30;;
71016;Laerm;60940;52.046;5.340;2022-10-29T00:30:15;32.19;29.36;38.29;;
71016;Laerm;60940;52.046;5.340;2022-10-29T00:30:25;31.47;28.93;35.37;;
71016;Laerm;60940;52.046;5.340;2022-10-29T00:30:35;31.56;29.24;35.42;;
71016;Laerm;60940;52.046;5.340;2022-10-29T00:30:46;30.77;28.57;33.89;;
71016;Laerm;60940;52.046;5.340;2022-10-29T00:30:56;30.56;29.21;32.42;;
71016;Laerm;60940;52.046;5.340;2022-10-29T00:31:10;30.54;28.84;32.47;;
71016;Laerm;60940;52.046;5.340;2022-10-29T00:31:21;30.49;28.73;32.70;;
71016;Laerm;60940;52.046;5.340;2022-10-29T00:31:35;30.26;28.87;32.96;;
71016;Laerm;60940;52.046;5.340;2022-10-29T00:31:45;30.33;29.10;32.31;;
71016;Laerm;60940;52.046;5.340;2022-10-29T00:31:55;30.30;29.01;32.47;;
71016;Laerm;60940;52.046;5.340;2022-10-29T00:32:05;30.43;29.05;32.68;;
71016;Laerm;60940;52.046;5.340;2022-10-29T00:32:15;30.67;28.90;32.45;;
71016;Laerm;60940;52.046;5.340;2022-10-29T00:32:26;30.82;28.53;33.89;;
71016;Laerm;60940;52.046;5.340;2022-10-29T00:32:36;32.68;29.31;39.96;;
71016;Laerm;60940;52.046;5.340;2022-10-29T00:32:46;34.70;29.53;41.88;;
71016;Laerm;60940;52.046;5.340;2022-10-29T00:32:56;33.92;30.68;39.74;;
71016;Laerm;60940;52.046;5.340;2022-10-29T00:33:06;33.30;30.31;38.45;;
71016;Laerm;60940;52.046;5.340;2022-10-29T00:33:17;32.22;29.26;36.01;;
71016;Laerm;60940;52.046;5.340;2022-10-29T00:33:27;31.88;29.62;35.25;;
71016;Laerm;60940;52.046;5.340;2022-10-29T00:33:38;31.94;29.54;35.89;;
71016;Laerm;60940;52.046;5.340;2022-10-29T00:33:48;32.21;28.95;37.69;;
71016;Laerm;60940;52.046;5.340;2022-10-29T00:33:58;31.21;29.18;34.36;;
71016;Laerm;60940;52.046;5.340;2022-10-29T00:34:09;30.84;28.84;33.32;;
71016;Laerm;60940;52.046;5.340;2022-10-29T00:34:19;30.67;28.79;35.28;;
71016;Laerm;60940;52.046;5.340;2022-10-29T00:34:29;30.45;28.96;33.29;;
71016;Laerm;60940;52.046;5.340;2022-10-29T00:34:39;31.09;28.95;42.62;;
71016;Laerm;60940;52.046;5.340;2022-10-29T00:34:49;30.03;28.83;31.89;;
71016;Laerm;60940;52.046;5.340;2022-10-29T00:35:00;29.93;28.34;31.34;;
71016;Laerm;60940;52.046;5.340;2022-10-29T00:35:10;30.17;28.55;37.89;;
71016;Laerm;60940;52.046;5.340;2022-10-29T00:35:20;30.16;29.11;32.46;;
71016;Laerm;60940;52.046;5.340;2022-10-29T00:35:30;31.26;28.49;41.98;;
71016;Laerm;60940;52.046;5.340;2022-10-29T00:35:40;31.84;29.47;36.15;;
71016;Laerm;60940;52.046;5.340;2022-10-29T00:35:54;33.55;30.03;38.68;;
71016;Laerm;60940;52.046;5.340;2022-10-29T00:36:06;34.59;30.69;41.58;;
71016;Laerm;60940;52.046;5.340;2022-10-29T00:36:18;34.68;30.45;40.00;;
71016;Laerm;60940;52.046;5.340;2022-10-29T00:36:28;34.22;29.92;41.91;;
71016;Laerm;60940;52.046;5.340;2022-10-29T00:36:39;33.58;30.23;38.23;;
71016;Laerm;60940;52.046;5.340;2022-10-29T00:36:49;33.08;29.86;41.00;;
71016;Laerm;60940;52.046;5.340;2022-10-29T00:36:59;32.93;29.72;37.92;;
71016;Laerm;60940;52.046;5.340;2022-10-29T00:37:09;31.95;29.14;35.43;;
71016;Laerm;60940;52.046;5.340;2022-10-29T00:37:20;32.13;29.29;38.97;;
71016;Laerm;60940;52.046;5.340;2022-10-29T00:37:30;31.11;28.85;33.81;;
71016;Laerm;60940;52.046;5.340;2022-10-29T00:37:40;31.01;29.30;33.50;;
71016;Laerm;60940;52.046;5.340;2022-10-29T00:37:50;30.87;29.05;34.99;;
71016;Laerm;60940;52.046;5.340;2022-10-29T00:38:00;30.91;29.14;33.87;;
71016;Laerm;60940;52.046;5.340;2022-10-29T00:38:11;30.26;29.04;31.45;;
71016;Laerm;60940;52.046;5.340;2022-10-29T00:38:21;30.38;29.03;32.50;;
71016;Laerm;60940;52.046;5.340;2022-10-29T00:38:31;30.20;28.88;31.63;;
71016;Laerm;60940;52.046;5.340;2022-10-29T00:38:42;30.49;28.94;32.84;;
71016;Laerm;60940;52.046;5.340;2022-10-29T00:38:52;30.15;28.85;31.67;;
71016;Laerm;60940;52.046;5.340;2022-10-29T00:39:02;30.15;28.58;32.94;;
71016;Laerm;60940;52.046;5.340;2022-10-29T00:39:15;30.07;28.82;31.80;;
71016;Laerm;60940;52.046;5.340;2022-10-29T00:39:25;33.62;28.62;51.22;;
71016;Laerm;60940;52.046;5.340;2022-10-29T00:39:36;29.84;28.53;31.39;;
71016;Laerm;60940;52.046;5.340;2022-10-29T00:39:46;30.01;28.70;34.11;;
71016;Laerm;60940;52.046;5.340;2022-10-29T00:39:56;29.84;28.55;31.45;;
71016;Laerm;60940;52.046;5.340;2022-10-29T00:40:06;29.89;28.76;32.59;;
71016;Laerm;60940;52.046;5.340;2022-10-29T00:40:17;29.81;28.83;31.33;;
71016;Laerm;60940;52.046;5.340;2022-10-29T00:40:28;30.48;28.88;38.51;;
71016;Laerm;60940;52.046;5.340;2022-10-29T00:40:38;29.91;28.42;31.23;;
71016;Laerm;60940;52.046;5.340;2022-10-29T00:40:49;30.18;28.55;31.58;;
71016;Laerm;60940;52.046;5.340;2022-10-29T00:40:59;30.07;28.87;31.81;;
71016;Laerm;60940;52.046;5.340;2022-10-29T00:41:11;30.09;28.90;31.39;;
71016;Laerm;60940;52.046;5.340;2022-10-29T00:41:25;30.13;29.19;31.53;;
71016;Laerm;60940;52.046;5.340;2022-10-29T00:41:35;30.52;28.81;32.89;;
71016;Laerm;60940;52.046;5.340;2022-10-29T00:41:46;31.94;29.06;36.66;;
71016;Laerm;60940;52.046;5.340;2022-10-29T00:41:56;30.70;28.84;32.23;;
71016;Laerm;60940;52.046;5.340;2022-10-29T00:42:11;30.05;28.90;31.10;;
71016;Laerm;60940;52.046;5.340;2022-10-29T00:42:22;30.19;29.03;31.80;;
71016;Laerm;60940;52.046;5.340;2022-10-29T00:42:32;30.09;28.78;33.16;;
71016;Laerm;60940;52.046;5.340;2022-10-29T00:42:42;30.13;28.80;32.09;;
71016;Laerm;60940;52.046;5.340;2022-10-29T00:42:53;30.03;28.71;31.63;;
71016;Laerm;60940;52.046;5.340;2022-10-29T00:43:16;29.78;28.65;31.02;;
71016;Laerm;60940;52.046;5.340;2022-10-29T00:43:27;29.89;28.65;31.30;;
71016;Laerm;60940;52.046;5.340;2022-10-29T00:43:37;30.00;28.79;31.39;;
71016;Laerm;60940;52.046;5.340;2022-10-29T00:43:51;29.74;28.53;30.78;;
71016;Laerm;60940;52.046;5.340;2022-10-29T00:44:26;29.90;28.53;33.37;;
71016;Laerm;60940;52.046;5.340;2022-10-29T00:44:38;29.99;28.75;31.21;;
71016;Laerm;60940;52.046;5.340;2022-10-29T00:44:49;30.06;28.72;31.66;;
71016;Laerm;60940;52.046;5.340;2022-10-29T00:45:00;30.22;29.07;33.66;;
71016;Laerm;60940;52.046;5.340;2022-10-29T00:45:13;30.09;28.85;31.77;;
71016;Laerm;60940;52.046;5.340;2022-10-29T00:45:26;29.74;28.25;31.20;;
71016;Laerm;60940;52.046;5.340;2022-10-29T00:45:36;30.52;28.48;40.08;;
71016;Laerm;60940;52.046;5.340;2022-10-29T00:45:51;29.78;28.64;32.35;;
71016;Laerm;60940;52.046;5.340;2022-10-29T00:46:03;29.75;28.48;30.88;;
71016;Laerm;60940;52.046;5.340;2022-10-29T00:46:29;29.73;28.30;30.78;;
71016;Laerm;60940;52.046;5.340;2022-10-29T00:46:40;29.82;28.53;31.27;;
71016;Laerm;60940;52.046;5.340;2022-10-29T00:47:03;29.97;28.69;31.38;;
71016;Laerm;60940;52.046;5.340;2022-10-29T00:47:22;30.02;28.66;33.50;;
71016;Laerm;60940;52.046;5.340;2022-10-29T00:47:35;29.98;28.54;31.73;;
71016;Laerm;60940;52.046;5.340;2022-10-29T00:47:47;29.96;28.89;31.28;;
71016;Laerm;60940;52.046;5.340;2022-10-29T00:47:58;29.90;28.59;31.07;;
71016;Laerm;60940;52.046;5.340;2022-10-29T00:48:08;29.82;28.58;31.52;;
71016;Laerm;60940;52.046;5.340;2022-10-29T00:48:19;30.22;28.96;31.72;;
71016;Laerm;60940;52.046;5.340;2022-10-29T00:48:32;30.13;28.81;31.31;;
71016;Laerm;60940;52.046;5.340;2022-10-29T00:48:44;29.97;28.50;32.01;;
71016;Laerm;60940;52.046;5.340;2022-10-29T00:48:55;29.98;28.82;33.99;;
71016;Laerm;60940;52.046;5.340;2022-10-29T00:49:07;30.15;28.89;31.54;;
71016;Laerm;60940;52.046;5.340;2022-10-29T00:49:18;30.48;29.10;31.88;;
71016;Laerm;60940;52.046;5.340;2022-10-29T00:49:29;30.69;28.97;32.78;;
71016;Laerm;60940;52.046;5.340;2022-10-29T00:49:40;30.10;28.52;34.91;;
71016;Laerm;60940;52.046;5.340;2022-10-29T00:50:02;29.83;28.70;31.01;;
71016;Laerm;60940;52.046;5.340;2022-10-29T00:50:13;30.02;28.18;31.53;;
71016;Laerm;60940;52.046;5.340;2022-10-29T00:50:24;29.86;28.78;30.73;;
71016;Laerm;60940;52.046;5.340;2022-10-29T00:50:34;29.86;28.66;31.66;;
71016;Laerm;60940;52.046;5.340;2022-10-29T00:50:44;29.90;28.70;31.33;;
71016;Laerm;60940;52.046;5.340;2022-10-29T00:50:55;29.83;28.34;30.95;;
71016;Laerm;60940;52.046;5.340;2022-10-29T00:51:07;29.84;28.82;30.84;;
71016;Laerm;60940;52.046;5.340;2022-10-29T00:51:19;29.87;28.68;31.14;;
71016;Laerm;60940;52.046;5.340;2022-10-29T00:51:30;29.91;28.67;31.07;;
71016;Laerm;60940;52.046;5.340;2022-10-29T00:51:41;29.97;28.55;31.56;;
71016;Laerm;60940;52.046;5.340;2022-10-29T00:51:51;29.97;28.69;31.34;;
71016;Laerm;60940;52.046;5.340;2022-10-29T00:52:02;29.94;28.69;31.23;;
71016;Laerm;60940;52.046;5.340;2022-10-29T00:52:13;29.85;28.44;31.09;;
71016;Laerm;60940;52.046;5.340;2022-10-29T00:52:24;30.06;28.89;31.24;;
71016;Laerm;60940;52.046;5.340;2022-10-29T00:52:38;30.42;28.87;32.72;;
71016;Laerm;60940;52.046;5.340;2022-10-29T00:52:50;30.18;28.97;31.38;;
71016;Laerm;60940;52.046;5.340;2022-10-29T00:53:01;30.22;28.66;31.84;;
71016;Laerm;60940;52.046;5.340;2022-10-29T00:53:11;29.84;28.72;30.95;;
71016;Laerm;60940;52.046;5.340;2022-10-29T00:53:22;30.07;28.82;31.18;;
71016;Laerm;60940;52.046;5.340;2022-10-29T00:53:36;30.00;28.72;31.35;;
71016;Laerm;60940;52.046;5.340;2022-10-29T00:53:48;30.08;28.41;35.29;;
71016;Laerm;60940;52.046;5.340;2022-10-29T00:54:02;30.22;29.06;31.51;;
71016;Laerm;60940;52.046;5.340;2022-10-29T00:54:13;30.19;28.76;31.64;;
71016;Laerm;60940;52.046;5.340;2022-10-29T00:54:24;29.90;28.74;31.43;;
71016;Laerm;60940;52.046;5.340;2022-10-29T00:54:37;30.02;28.78;31.72;;
71016;Laerm;60940;52.046;5.340;2022-10-29T00:54:49;30.06;28.81;31.41;;
71016;Laerm;60940;52.046;5.340;2022-10-29T00:55:02;29.93;28.59;31.08;;
71016;Laerm;60940;52.046;5.340;2022-10-29T00:55:14;29.98;28.92;31.00;;
71016;Laerm;60940;52.046;5.340;2022-10-29T00:55:25;29.98;28.74;31.41;;
71016;Laerm;60940;52.046;5.340;2022-10-29T00:55:35;30.01;28.66;31.48;;
71016;Laerm;60940;52.046;5.340;2022-10-29T00:55:45;29.86;28.76;31.15;;
71016;Laerm;60940;52.046;5.340;2022-10-29T00:55:56;29.82;28.53;31.06;;
71016;Laerm;60940;52.046;5.340;2022-10-29T00:56:06;29.95;28.46;31.42;;
71016;Laerm;60940;52.046;5.340;2022-10-29T00:56:17;30.23;29.20;31.51;;
71016;Laerm;60940;52.046;5.340;2022-10-29T00:56:27;30.32;28.98;31.95;;
71016;Laerm;60940;52.046;5.340;2022-10-29T00:57:00;29.93;28.81;30.96;;
71016;Laerm;60940;52.046;5.340;2022-10-29T00:57:10;29.96;28.59;31.30;;
71016;Laerm;60940;52.046;5.340;2022-10-29T00:57:26;29.69;28.44;31.11;;
71016;Laerm;60940;52.046;5.340;2022-10-29T00:57:38;29.74;28.58;31.25;;
71016;Laerm;60940;52.046;5.340;2022-10-29T00:57:51;29.68;28.37;31.67;;
71016;Laerm;60940;52.046;5.340;2022-10-29T00:58:02;29.71;28.65;30.78;;
71016;Laerm;60940;52.046;5.340;2022-10-29T00:58:13;29.80;28.71;31.21;;
71016;Laerm;60940;52.046;5.340;2022-10-29T00:58:23;29.75;28.53;30.90;;
71016;Laerm;60940;52.046;5.340;2022-10-29T00:58:34;29.95;28.66;31.26;;
71016;Laerm;60940;52.046;5.340;2022-10-29T00:58:44;29.90;28.65;31.37;;
71016;Laerm;60940;52.046;5.340;2022-10-29T00:58:54;30.12;28.44;32.15;;
71016;Laerm;60940;52.046;5.340;2022-10-29T00:59:05;30.17;28.76;33.93;;
71016;Laerm;60940;52.046;5.340;2022-10-29T00:59:16;29.84;28.47;31.08;;
71016;Laerm;60940;52.046;5.340;2022-10-29T00:59:27;29.83;28.49;31.13;;
71016;Laerm;60940;52.046;5.340;2022-10-29T00:59:37;29.86;28.41;31.35;;
71016;Laerm;60940;52.046;5.340;2022-10-29T00:59:48;29.74;28.61;31.10;;
71016;Laerm;60940;52.046;5.340;2022-10-29T00:59:59;29.71;28.09;30.89;;
71016;Laerm;60940;52.046;5.340;2022-10-29T01:00:09;29.77;28.38;31.40;;
71016;Laerm;60940;52.046;5.340;2022-10-29T01:00:20;29.73;28.40;30.89;;
71016;Laerm;60940;52.046;5.340;2022-10-29T01:00:30;29.70;28.59;31.41;;
71016;Laerm;60940;52.046;5.340;2022-10-29T01:00:41;29.75;28.56;31.40;;
71016;Laerm;60940;52.046;5.340;2022-10-29T01:00:52;29.90;28.84;30.89;;
71016;Laerm;60940;52.046;5.340;2022-10-29T01:01:02;30.25;29.09;32.74;;
71016;Laerm;60940;52.046;5.340;2022-10-29T01:01:12;30.45;29.18;33.81;;
71016;Laerm;60940;52.046;5.340;2022-10-29T01:01:22;30.38;28.96;33.07;;
71016;Laerm;60940;52.046;5.340;2022-10-29T01:01:33;30.54;29.07;33.79;;
71016;Laerm;60940;52.046;5.340;2022-10-29T01:01:44;30.81;29.07;33.22;;
71016;Laerm;60940;52.046;5.340;2022-10-29T01:01:55;31.45;29.12;40.53;;
71016;Laerm;60940;52.046;5.340;2022-10-29T01:02:05;30.91;29.08;35.46;;
71016;Laerm;60940;52.046;5.340;2022-10-29T01:02:15;30.66;29.12;33.09;;